createdAt,value
2017-11-25T00:00:28.687Z,41.03
2017-11-25T00:02:56.842Z,37.07
2017-11-25T00:05:24.972Z,37.57
2017-11-25T00:07:53.152Z,36.10
2017-11-25T00:10:21.357Z,38.03
2017-11-25T00:12:50.399Z,33.67
2017-11-25T00:15:34.466Z,34.43
2017-11-25T00:18:13.347Z,30.30
2017-11-25T00:20:41.619Z,33.03
2017-11-25T00:23:10.516Z,31.50
2017-11-25T00:26:06.304Z,32.70
2017-11-25T00:28:37.476Z,40.80
2017-11-25T00:31:11.342Z,36.50
2017-11-25T00:33:41.590Z,32.73
2017-11-25T00:36:16.375Z,29.87
2017-11-25T00:38:44.618Z,33.40
2017-11-25T00:41:12.777Z,31.47
2017-11-25T00:43:41.747Z,33.27
2017-11-25T00:46:16.312Z,32.30
2017-11-25T00:48:44.527Z,30.27
2017-11-25T00:51:12.683Z,31.43
2017-11-25T00:53:40.782Z,33.27
2017-11-25T00:56:14.054Z,31.40
2017-11-25T00:58:44.839Z,32.97
2017-11-25T01:01:18.554Z,31.50
2017-11-25T01:03:47.438Z,33.37
2017-11-25T01:06:37.237Z,35.17
2017-11-25T01:09:06.349Z,29.60
2017-11-25T01:11:51.193Z,29.37
2017-11-25T01:14:20.945Z,34.57
2017-11-25T01:16:49.137Z,34.40
2017-11-25T01:22:01.335Z,31.07
2017-11-25T01:24:29.458Z,36.30
2017-11-25T01:27:02.594Z,35.67
2017-11-25T01:29:31.719Z,34.50
2017-11-25T01:31:59.879Z,34.30
2017-11-25T01:34:28.017Z,33.83
2017-11-25T01:36:57.167Z,39.00
2017-11-25T01:39:27.280Z,32.23
2017-11-25T01:42:03.139Z,38.43
2017-11-25T01:44:32.068Z,35.90
2017-11-25T01:47:00.210Z,35.00
2017-11-25T01:49:42.092Z,35.00
2017-11-25T01:52:10.220Z,36.77
2017-11-25T01:54:38.328Z,35.80
2017-11-25T02:02:59.975Z,37.80
2017-11-25T02:05:40.499Z,38.53
2017-11-25T02:08:21.780Z,40.13
2017-11-25T02:10:56.932Z,39.00
2017-11-25T02:13:25.100Z,44.73
2017-11-25T02:16:08.684Z,39.23
2017-11-25T02:18:44.314Z,41.53
2017-11-25T02:21:13.242Z,41.77
2017-11-25T02:24:04.878Z,44.40
2017-11-25T02:26:33.050Z,41.80
2017-11-25T02:32:25.414Z,44.10
2017-11-25T02:34:56.661Z,38.10
2017-11-25T02:37:26.746Z,41.30
2017-11-25T02:39:54.977Z,41.03
2017-11-25T02:45:32.601Z,42.90
2017-11-25T02:48:01.005Z,39.00
2017-11-25T02:50:39.317Z,39.50
2017-11-25T02:56:02.361Z,37.97
2017-11-25T02:58:40.191Z,41.27
2017-11-25T03:01:22.924Z,35.93
2017-11-25T03:03:51.685Z,42.27
2017-11-25T03:06:19.870Z,34.60
2017-11-25T03:08:48.007Z,36.57
2017-11-25T03:11:16.131Z,34.97
2017-11-25T03:19:38.257Z,36.47
2017-11-25T03:25:06.685Z,36.60
2017-11-25T03:28:07.604Z,37.90
2017-11-25T03:30:40.943Z,39.30
2017-11-25T03:36:10.384Z,39.97
2017-11-25T03:38:42.230Z,43.03
2017-11-25T03:41:10.593Z,34.80
2017-11-25T03:43:39.571Z,40.03
2017-11-25T03:46:08.790Z,37.17
2017-11-25T03:48:38.695Z,42.77
2017-11-25T03:51:13.308Z,45.87
2017-11-25T03:56:41.162Z,44.47
2017-11-25T04:02:08.289Z,51.70
2017-11-25T04:04:38.668Z,54.17
2017-11-25T04:07:06.816Z,44.93
2017-11-25T04:09:34.912Z,54.03
2017-11-25T04:12:05.020Z,65.80
2017-11-25T04:14:33.132Z,57.90
2017-11-25T04:17:01.259Z,51.13
2017-11-25T04:19:31.279Z,50.93
2017-11-25T04:28:00.301Z,73.40
2017-11-25T04:30:31.581Z,51.63
2017-11-25T04:38:55.935Z,55.00
2017-11-25T04:41:26.051Z,63.73
2017-11-25T04:43:55.312Z,63.60
2017-11-25T04:46:23.494Z,94.67
2017-11-25T04:48:57.969Z,69.30
2017-11-25T04:51:37.291Z,74.70
2017-11-25T04:54:12.387Z,59.07
2017-11-25T04:56:40.513Z,58.43
2017-11-25T04:59:08.698Z,51.67
2017-11-25T05:01:40.227Z,46.13
2017-11-25T05:04:09.332Z,60.10
2017-11-25T05:06:38.494Z,47.47
2017-11-25T05:09:07.441Z,53.70
2017-11-25T05:11:35.600Z,51.23
2017-11-25T05:14:13.375Z,67.27
2017-11-25T05:16:41.503Z,97.27
2017-11-25T05:22:04.995Z,76.30
2017-11-25T05:24:38.251Z,49.90
2017-11-25T05:27:06.377Z,46.80
2017-11-25T05:29:35.491Z,40.20
2017-11-25T05:32:09.560Z,47.33
2017-11-25T05:37:14.912Z,44.90
2017-11-25T05:39:54.591Z,39.13
2017-11-25T05:42:25.617Z,55.73
2017-11-25T05:44:53.825Z,46.87
2017-11-25T05:47:27.362Z,40.20
2017-11-25T05:49:55.548Z,50.17
2017-11-25T05:52:23.659Z,59.13
2017-11-25T05:55:03.069Z,79.80
2017-11-25T05:57:32.029Z,43.87
2017-11-25T06:00:08.358Z,51.50
2017-11-25T06:02:38.457Z,43.27
2017-11-25T06:05:25.951Z,42.93
2017-11-25T06:07:55.152Z,45.83
2017-11-25T06:10:27.518Z,45.87
2017-11-25T06:12:55.786Z,47.07
2017-11-25T06:15:23.986Z,38.90
2017-11-25T06:17:52.127Z,42.30
2017-11-25T06:20:20.268Z,49.40
2017-11-25T06:22:50.316Z,45.77
2017-11-25T06:25:31.311Z,53.90
2017-11-25T06:28:00.313Z,43.10
2017-11-25T06:30:39.911Z,70.13
2017-11-25T06:33:08.231Z,47.73
2017-11-25T06:35:36.438Z,49.80
2017-11-25T06:38:14.820Z,49.63
2017-11-25T06:40:42.983Z,38.00
2017-11-25T06:43:11.082Z,58.10
2017-11-25T06:45:39.387Z,54.87
2017-11-25T06:48:15.212Z,48.40
2017-11-25T06:50:43.524Z,43.47
2017-11-25T06:53:32.429Z,46.07
2017-11-25T06:59:07.883Z,46.73
2017-11-25T07:01:36.048Z,43.13
2017-11-25T07:04:22.046Z,45.07
2017-11-25T07:06:57.452Z,42.53
2017-11-25T07:09:38.123Z,39.60
2017-11-25T07:12:08.280Z,41.03
2017-11-25T07:14:38.322Z,45.77
2017-11-25T07:17:12.145Z,45.87
2017-11-25T07:19:40.376Z,44.30
2017-11-25T07:25:09.777Z,40.97
2017-11-25T07:27:37.914Z,43.97
2017-11-25T07:30:09.658Z,39.67
2017-11-25T07:32:48.823Z,50.13
2017-11-25T07:35:16.895Z,44.57
2017-11-25T07:38:06.539Z,39.77
2017-11-25T07:40:34.680Z,37.13
2017-11-25T07:43:09.856Z,33.57
2017-11-25T07:45:47.203Z,40.90
2017-11-25T07:54:00.257Z,45.20
2017-11-25T07:56:33.555Z,50.07
2017-11-25T07:59:04.193Z,36.47
2017-11-25T08:04:37.795Z,42.33
2017-11-25T08:07:10.370Z,43.50
2017-11-25T08:12:43.612Z,48.03
2017-11-25T08:15:11.738Z,46.03
2017-11-25T08:17:39.899Z,45.03
2017-11-25T08:23:06.089Z,45.47
2017-11-25T08:25:40.013Z,51.70
2017-11-25T08:28:09.931Z,43.93
2017-11-25T08:30:50.392Z,42.37
2017-11-25T08:33:18.602Z,34.07
2017-11-25T08:35:47.919Z,37.77
2017-11-25T08:38:28.347Z,39.80
2017-11-25T08:40:56.563Z,46.80
2017-11-25T08:43:29.645Z,40.60
2017-11-25T08:46:03.019Z,42.03
2017-11-25T08:48:46.443Z,36.97
2017-11-25T08:51:16.069Z,38.63
2017-11-25T08:53:44.915Z,34.47
2017-11-25T08:56:19.682Z,37.67
2017-11-25T08:59:07.445Z,37.30
2017-11-25T09:01:36.393Z,35.67
2017-11-25T09:04:05.509Z,34.00
2017-11-25T09:06:33.619Z,44.07
2017-11-25T09:09:07.801Z,39.20
2017-11-25T09:11:35.980Z,41.60
2017-11-25T09:14:08.802Z,34.73
2017-11-25T09:16:37.040Z,38.10
2017-11-25T09:19:06.306Z,39.00
2017-11-25T09:21:34.495Z,35.00
2017-11-25T09:24:03.574Z,36.40
2017-11-25T09:26:33.475Z,37.00
2017-11-25T09:29:06.532Z,35.03
2017-11-25T09:31:34.668Z,32.57
2017-11-25T09:34:02.849Z,41.73
2017-11-25T09:36:32.994Z,39.77
2017-11-25T09:39:08.104Z,41.03
2017-11-25T09:41:37.331Z,47.90
2017-11-25T09:44:05.724Z,46.70
2017-11-25T09:46:33.819Z,43.17
2017-11-25T09:49:02.351Z,46.53
2017-11-25T09:51:43.692Z,42.83
2017-11-25T09:54:12.401Z,45.23
2017-11-25T09:56:40.539Z,39.40
2017-11-25T09:59:11.906Z,44.53
2017-11-25T10:01:49.893Z,49.60
2017-11-25T10:04:18.933Z,43.37
2017-11-25T10:06:48.262Z,48.60
2017-11-25T10:09:16.898Z,39.23
2017-11-25T10:11:45.048Z,34.73
2017-11-25T10:14:15.055Z,30.93
2017-11-25T10:16:48.019Z,37.17
2017-11-25T10:19:18.086Z,41.50
2017-11-25T10:21:46.224Z,34.80
2017-11-25T10:24:36.639Z,35.60
2017-11-25T10:27:09.019Z,31.60
2017-11-25T10:29:37.260Z,30.03
2017-11-25T10:32:12.254Z,30.33
2017-11-25T10:34:40.414Z,30.67
2017-11-25T10:37:10.832Z,27.57
2017-11-25T10:39:43.004Z,28.80
2017-11-25T10:42:13.044Z,29.40
2017-11-25T10:45:00.288Z,22.13
2017-11-25T10:47:36.145Z,23.17
2017-11-25T10:50:06.505Z,25.00
2017-11-25T10:52:55.626Z,22.17
2017-11-25T10:55:39.395Z,24.63
2017-11-25T10:58:07.643Z,22.53
2017-11-25T11:00:37.788Z,25.90
2017-11-25T11:03:08.985Z,20.27
2017-11-25T11:05:42.295Z,20.63
2017-11-25T11:08:17.631Z,19.03
2017-11-25T11:10:46.878Z,24.70
2017-11-25T11:13:21.257Z,23.27
2017-11-25T11:15:49.407Z,19.40
2017-11-25T11:18:17.554Z,22.10
2017-11-25T11:20:54.026Z,23.27
2017-11-25T11:23:40.986Z,21.87
2017-11-25T11:26:27.011Z,25.50
2017-11-25T11:29:06.797Z,20.43
2017-11-25T11:31:34.925Z,22.20
2017-11-25T11:34:03.029Z,21.57
2017-11-25T11:36:32.296Z,22.17
2017-11-25T11:39:05.026Z,18.23
2017-11-25T11:41:33.214Z,19.97
2017-11-25T11:44:08.834Z,19.47
2017-11-25T11:46:37.925Z,22.30
2017-11-25T11:49:09.078Z,18.40
2017-11-25T11:51:37.299Z,20.60
2017-11-25T11:54:22.960Z,22.10
2017-11-25T11:57:10.325Z,21.40
2017-11-25T11:59:59.316Z,21.20
2017-11-25T12:02:27.540Z,19.10
2017-11-25T12:04:55.659Z,23.70
2017-11-25T12:07:28.449Z,20.73
2017-11-25T12:09:58.598Z,21.63
2017-11-25T12:12:27.042Z,18.40
2017-11-25T12:14:57.340Z,19.40
2017-11-25T12:17:27.283Z,20.57
2017-11-25T12:20:08.220Z,20.30
2017-11-25T12:22:36.342Z,25.60
2017-11-25T12:25:10.444Z,22.97
2017-11-25T12:27:44.365Z,23.73
2017-11-25T12:30:13.296Z,26.03
2017-11-25T12:32:41.557Z,22.60
2017-11-25T12:35:10.246Z,19.40
2017-11-25T12:37:41.856Z,19.40
2017-11-25T12:40:11.017Z,20.27
2017-11-25T12:42:39.179Z,18.17
2017-11-25T12:45:11.951Z,19.40
2017-11-25T12:47:40.148Z,19.63
2017-11-25T12:50:08.452Z,19.30
2017-11-25T12:52:36.592Z,20.87
2017-11-25T12:55:04.740Z,20.40
2017-11-25T12:57:38.102Z,17.80
2017-11-25T13:00:06.208Z,18.40
2017-11-25T13:02:38.458Z,17.83
2017-11-25T13:05:08.495Z,17.93
2017-11-25T13:07:40.968Z,17.93
2017-11-25T13:13:10.119Z,15.50
2017-11-25T13:15:39.173Z,18.73
2017-11-25T13:21:08.873Z,19.20
2017-11-25T13:26:34.405Z,17.73
2017-11-25T13:29:02.542Z,20.43
2017-11-25T13:31:36.288Z,19.67
2017-11-25T13:37:18.234Z,17.20
2017-11-25T13:39:52.811Z,16.67
2017-11-25T13:42:23.062Z,19.50
2017-11-25T13:44:55.466Z,18.83
2017-11-25T13:47:24.674Z,19.37
2017-11-25T13:50:07.370Z,19.60
2017-11-25T13:52:35.753Z,22.43
2017-11-25T13:55:05.089Z,17.93
2017-11-25T13:57:33.628Z,18.70
2017-11-25T14:00:03.173Z,18.30
2017-11-25T14:02:32.856Z,18.77
2017-11-25T14:05:03.108Z,20.53
2017-11-25T14:07:35.509Z,20.57
2017-11-25T14:10:04.798Z,18.33
2017-11-25T14:12:36.065Z,21.80
2017-11-25T14:15:09.957Z,17.03
2017-11-25T14:17:41.439Z,20.13
2017-11-25T14:20:15.680Z,21.73
2017-11-25T14:22:43.766Z,18.97
2017-11-25T14:25:23.967Z,18.43
2017-11-25T14:27:53.939Z,18.03
2017-11-25T14:30:35.696Z,19.00
2017-11-25T14:33:03.941Z,16.70
2017-11-25T14:35:32.169Z,15.63
2017-11-25T14:38:08.642Z,18.60
2017-11-25T14:40:37.836Z,16.77
2017-11-25T14:43:06.027Z,17.33
2017-11-25T14:45:38.837Z,16.40
2017-11-25T14:48:06.978Z,16.90
2017-11-25T14:50:36.252Z,15.70
2017-11-25T14:53:08.408Z,19.47
2017-11-25T14:55:36.519Z,17.50
2017-11-25T14:58:08.883Z,16.77
2017-11-25T15:00:38.754Z,16.47
2017-11-25T15:03:06.954Z,14.70
2017-11-25T15:05:38.437Z,15.53
2017-11-25T15:08:14.751Z,15.30
2017-11-25T15:10:44.928Z,15.37
2017-11-25T15:13:13.066Z,13.83
2017-11-25T15:15:46.542Z,13.37
2017-11-25T15:18:14.701Z,15.90
2017-11-25T15:21:02.253Z,13.47
2017-11-25T15:23:30.431Z,11.63
2017-11-25T15:26:03.244Z,12.37
2017-11-25T15:28:31.635Z,13.20
2017-11-25T15:31:00.735Z,11.40
2017-11-25T15:33:28.876Z,11.17
2017-11-25T15:35:58.962Z,11.13
2017-11-25T15:38:32.928Z,13.00
2017-11-25T15:41:02.023Z,12.03
2017-11-25T15:43:30.123Z,10.50
2017-11-25T15:45:58.227Z,9.90
2017-11-25T15:48:28.348Z,14.33
2017-11-25T15:50:57.517Z,11.73
2017-11-25T15:53:25.661Z,10.77
2017-11-25T15:55:57.664Z,9.47
2017-11-25T15:58:33.140Z,10.07
2017-11-25T16:01:01.378Z,9.17
2017-11-25T16:03:32.806Z,8.00
2017-11-25T16:06:02.755Z,8.20
2017-11-25T16:08:30.866Z,9.37
2017-11-25T16:11:19.941Z,9.17
2017-11-25T16:13:48.077Z,8.47
2017-11-25T16:16:17.341Z,8.00
2017-11-25T16:18:45.533Z,8.80
2017-11-25T16:21:17.904Z,9.50
2017-11-25T16:23:49.344Z,8.07
2017-11-25T16:26:21.642Z,10.70
2017-11-25T16:28:50.512Z,9.30
2017-11-25T16:31:37.308Z,9.30
2017-11-25T16:34:05.429Z,8.17
2017-11-25T16:36:33.561Z,12.60
2017-11-25T16:39:08.144Z,8.90
2017-11-25T16:41:38.026Z,8.40
2017-11-25T16:44:07.132Z,8.90
2017-11-25T16:46:46.529Z,8.07
2017-11-25T16:49:19.586Z,9.03
2017-11-25T16:51:54.263Z,7.10
2017-11-25T16:54:22.427Z,7.33
2017-11-25T16:56:50.563Z,9.93
2017-11-25T16:59:18.814Z,7.83
2017-11-25T17:01:47.903Z,7.60
2017-11-25T17:04:16.102Z,8.43
2017-11-25T17:06:45.911Z,8.13
2017-11-25T17:09:21.064Z,7.83
2017-11-25T17:11:49.200Z,10.10
2017-11-25T17:14:18.609Z,7.67
2017-11-25T17:16:47.630Z,8.40
2017-11-25T17:19:15.716Z,7.37
2017-11-25T17:21:44.838Z,7.37
2017-11-25T17:24:13.829Z,6.77
2017-11-25T17:26:41.988Z,8.23
2017-11-25T17:29:11.164Z,7.20
2017-11-25T17:31:39.264Z,12.53
2017-11-25T17:34:07.371Z,8.73
2017-11-25T17:36:35.764Z,7.07
2017-11-25T17:39:04.495Z,7.17
2017-11-25T17:41:33.631Z,7.00
2017-11-25T17:44:01.744Z,7.70
2017-11-25T17:46:29.941Z,7.87
2017-11-25T17:48:58.163Z,8.90
2017-11-25T17:51:26.406Z,8.30
2017-11-25T17:53:54.560Z,9.43
2017-11-25T17:56:23.477Z,6.40
2017-11-25T17:58:51.651Z,7.67
2017-11-25T18:01:19.765Z,6.87
2017-11-25T18:03:47.934Z,11.20
2017-11-25T18:06:16.063Z,9.20
2017-11-25T18:08:44.266Z,7.27
2017-11-25T18:11:12.395Z,8.40
2017-11-25T18:13:40.562Z,5.83
2017-11-25T18:16:09.504Z,7.10
2017-11-25T18:18:37.611Z,8.83
2017-11-25T18:21:05.972Z,7.23
2017-11-25T18:23:34.079Z,9.93
2017-11-25T18:26:08.936Z,8.77
2017-11-25T18:28:37.408Z,9.07
2017-11-25T18:31:05.552Z,6.67
2017-11-25T18:33:34.522Z,7.00
2017-11-25T18:36:02.719Z,7.10
2017-11-25T18:38:30.825Z,7.37
2017-11-25T18:40:59.731Z,7.10
2017-11-25T18:43:34.682Z,9.80
2017-11-25T18:46:02.792Z,8.73
2017-11-25T18:48:30.919Z,8.40
2017-11-25T18:50:59.108Z,8.90
2017-11-25T18:53:27.261Z,10.87
2017-11-25T18:55:56.393Z,10.70
2017-11-25T18:58:24.524Z,11.83
2017-11-25T19:00:52.703Z,12.20
2017-11-25T19:03:20.832Z,8.70
2017-11-25T19:05:54.457Z,9.00
2017-11-25T19:08:22.597Z,11.30
2017-11-25T19:10:50.715Z,8.63
2017-11-25T19:13:18.952Z,9.77
2017-11-25T19:15:47.066Z,9.53
2017-11-25T19:18:15.258Z,11.37
2017-11-25T19:20:43.463Z,9.87
2017-11-25T19:23:11.661Z,11.03
2017-11-25T19:25:39.910Z,10.20
2017-11-25T19:28:08.046Z,9.27
2017-11-25T19:30:36.361Z,10.73
2017-11-25T19:33:05.302Z,13.07
2017-11-25T19:35:33.492Z,11.33
2017-11-25T19:38:02.188Z,9.70
2017-11-25T19:40:30.360Z,11.40
2017-11-25T19:43:03.817Z,10.27
2017-11-25T19:45:31.973Z,9.97
2017-11-25T19:48:00.077Z,10.07
2017-11-25T19:50:28.197Z,11.13
2017-11-25T19:52:57.079Z,11.60
2017-11-25T19:58:19.004Z,11.47
2017-11-25T20:00:47.124Z,11.83
2017-11-25T20:03:15.324Z,11.03
2017-11-25T20:05:45.190Z,8.57
2017-11-25T20:08:13.303Z,10.50
2017-11-25T20:10:41.475Z,10.23
2017-11-25T20:13:09.730Z,12.10
2017-11-25T20:15:37.921Z,9.90
2017-11-25T20:18:06.044Z,9.97
2017-11-25T20:20:34.176Z,10.87
2017-11-25T20:23:04.438Z,11.07
2017-11-25T20:25:32.669Z,11.43
2017-11-25T20:28:01.663Z,10.07
2017-11-25T20:30:34.344Z,11.20
2017-11-25T20:33:03.316Z,9.63
2017-11-25T20:35:32.489Z,13.40
2017-11-25T20:38:00.662Z,10.63
2017-11-25T20:40:28.796Z,10.40
2017-11-25T20:42:56.940Z,12.33
2017-11-25T20:45:25.056Z,12.03
2017-11-25T20:47:53.211Z,8.93
2017-11-25T20:50:21.373Z,9.50
2017-11-25T20:52:49.471Z,9.70
2017-11-25T20:55:17.760Z,8.83
2017-11-25T20:57:45.935Z,10.27
2017-11-25T21:00:14.078Z,9.83
2017-11-25T21:02:42.269Z,9.70
2017-11-25T21:05:10.393Z,9.87
2017-11-25T21:07:38.565Z,9.73
2017-11-25T21:10:06.715Z,10.23
2017-11-25T21:12:34.896Z,9.63
2017-11-25T21:15:03.025Z,9.90
2017-11-25T21:17:31.226Z,10.50
2017-11-25T21:19:59.406Z,12.37
2017-11-25T21:22:27.555Z,8.20
2017-11-25T21:24:55.774Z,10.53
2017-11-25T21:27:24.056Z,9.53
2017-11-25T21:29:52.309Z,11.97
2017-11-25T21:32:20.466Z,9.20
2017-11-25T21:34:49.438Z,8.73
2017-11-25T21:37:17.563Z,9.13
2017-11-25T21:39:47.094Z,8.27
2017-11-25T21:42:15.242Z,9.20
2017-11-25T21:44:43.341Z,8.40
2017-11-25T21:47:11.453Z,8.53
2017-11-25T21:49:39.553Z,7.87
2017-11-25T21:52:11.801Z,8.23
2017-11-25T21:54:40.090Z,8.40
2017-11-25T21:57:08.391Z,8.40
2017-11-25T21:59:36.520Z,10.00
2017-11-25T22:02:04.639Z,11.03
2017-11-25T22:04:33.550Z,9.27
2017-11-25T22:07:08.423Z,9.50
2017-11-25T22:09:36.561Z,7.37
2017-11-25T22:12:04.768Z,8.03
2017-11-25T22:14:33.642Z,11.83
2017-11-25T22:17:01.753Z,8.63
2017-11-25T22:19:29.880Z,7.17
2017-11-25T22:21:57.988Z,8.17
2017-11-25T22:24:26.188Z,7.13
2017-11-25T22:26:54.279Z,7.17
2017-11-25T22:29:23.430Z,8.20
2017-11-25T22:31:52.272Z,6.63
2017-11-25T22:34:21.454Z,8.60
2017-11-25T22:36:49.619Z,9.10
2017-11-25T22:39:23.961Z,7.57
2017-11-25T22:41:52.185Z,14.80
2017-11-25T22:44:20.311Z,6.40
2017-11-25T22:46:48.496Z,6.20
2017-11-25T22:49:22.635Z,5.93
2017-11-25T22:51:51.938Z,4.93
2017-11-25T22:54:20.580Z,7.67
2017-11-25T22:56:48.874Z,5.60
2017-11-25T22:59:17.502Z,8.43
2017-11-25T23:01:46.366Z,8.10
2017-11-25T23:04:18.367Z,7.10
2017-11-25T23:06:47.311Z,6.20
2017-11-25T23:09:15.469Z,6.03
2017-11-25T23:11:44.551Z,6.50
2017-11-25T23:14:13.455Z,6.93
2017-11-25T23:16:41.688Z,5.80
2017-11-25T23:19:09.808Z,7.83
2017-11-25T23:21:40.875Z,6.83
2017-11-25T23:24:08.963Z,7.10
2017-11-25T23:26:37.106Z,6.10
2017-11-25T23:29:05.210Z,5.60
2017-11-25T23:31:33.341Z,6.33
2017-11-25T23:34:02.490Z,6.20
2017-11-25T23:36:30.601Z,7.33
2017-11-25T23:38:58.715Z,10.00
2017-11-25T23:41:26.831Z,5.33
2017-11-25T23:43:54.999Z,7.47
2017-11-25T23:46:23.114Z,6.00
2017-11-25T23:49:06.120Z,6.33
2017-11-25T23:51:34.236Z,6.70
2017-11-25T23:54:02.411Z,8.27
2017-11-25T23:59:29.983Z,8.03
